sensor_id;sensor_type;location;lat;lon;timestamp;P1;durP1;ratioP1;P2;durP2;ratioP2
25319;SDS011;13256;49.012;8.610;2022-07-05T00:02:26;8.95;;;2.15;;
25319;SDS011;13256;49.012;8.610;2022-07-05T00:04:56;3.30;;;1.98;;
25319;SDS011;13256;49.012;8.610;2022-07-05T00:07:22;2.50;;;2.30;;
25319;SDS011;13256;49.012;8.610;2022-07-05T00:09:52;4.25;;;1.83;;
25319;SDS011;13256;49.012;8.610;2022-07-05T00:12:23;5.18;;;1.90;;
25319;SDS011;13256;49.012;8.610;2022-07-05T00:14:56;2.72;;;1.77;;
25319;SDS011;13256;49.012;8.610;2022-07-05T00:17:23;2.88;;;1.90;;
25319;SDS011;13256;49.012;8.610;2022-07-05T00:19:50;2.95;;;2.03;;
25319;SDS011;13256;49.012;8.610;2022-07-05T00:22:17;4.40;;;2.08;;
25319;SDS011;13256;49.012;8.610;2022-07-05T00:24:45;2.80;;;1.83;;
25319;SDS011;13256;49.012;8.610;2022-07-05T00:27:13;2.08;;;1.90;;
25319;SDS011;13256;49.012;8.610;2022-07-05T00:29:39;2.80;;;2.05;;
25319;SDS011;13256;49.012;8.610;2022-07-05T00:32:07;3.30;;;2.00;;
25319;SDS011;13256;49.012;8.610;2022-07-05T00:34:39;2.95;;;1.85;;
25319;SDS011;13256;49.012;8.610;2022-07-05T00:37:11;3.78;;;2.20;;
25319;SDS011;13256;49.012;8.610;2022-07-05T00:39:40;3.67;;;2.10;;
25319;SDS011;13256;49.012;8.610;2022-07-05T00:42:10;4.40;;;2.00;;
25319;SDS011;13256;49.012;8.610;2022-07-05T00:44:54;5.13;;;2.05;;
25319;SDS011;13256;49.012;8.610;2022-07-05T00:47:23;2.97;;;1.85;;
25319;SDS011;13256;49.012;8.610;2022-07-05T00:49:53;3.95;;;1.98;;
25319;SDS011;13256;49.012;8.610;2022-07-05T00:52:21;7.82;;;2.05;;
25319;SDS011;13256;49.012;8.610;2022-07-05T00:54:49;4.50;;;1.80;;
25319;SDS011;13256;49.012;8.610;2022-07-05T00:57:16;3.30;;;2.00;;
25319;SDS011;13256;49.012;8.610;2022-07-05T00:59:46;2.28;;;1.77;;
25319;SDS011;13256;49.012;8.610;2022-07-05T01:02:16;4.32;;;2.08;;
25319;SDS011;13256;49.012;8.610;2022-07-05T01:04:53;4.57;;;2.08;;
25319;SDS011;13256;49.012;8.610;2022-07-05T01:09:49;3.72;;;2.03;;
25319;SDS011;13256;49.012;8.610;2022-07-05T01:12:21;2.72;;;1.70;;
25319;SDS011;13256;49.012;8.610;2022-07-05T01:14:50;3.03;;;1.80;;
25319;SDS011;13256;49.012;8.610;2022-07-05T01:17:22;3.95;;;2.10;;
25319;SDS011;13256;49.012;8.610;2022-07-05T01:19:50;2.60;;;1.88;;
25319;SDS011;13256;49.012;8.610;2022-07-05T01:22:18;4.25;;;2.08;;
25319;SDS011;13256;49.012;8.610;2022-07-05T01:24:47;3.42;;;1.90;;
25319;SDS011;13256;49.012;8.610;2022-07-05T01:27:15;3.78;;;2.22;;
25319;SDS011;13256;49.012;8.610;2022-07-05T01:29:42;2.85;;;2.03;;
25319;SDS011;13256;49.012;8.610;2022-07-05T01:32:09;3.03;;;1.83;;
25319;SDS011;13256;49.012;8.610;2022-07-05T01:34:39;4.57;;;2.22;;
25319;SDS011;13256;49.012;8.610;2022-07-05T01:37:30;4.57;;;2.00;;
25319;SDS011;13256;49.012;8.610;2022-07-05T01:40:01;8.15;;;2.10;;
25319;SDS011;13256;49.012;8.610;2022-07-05T01:42:29;5.90;;;2.05;;
25319;SDS011;13256;49.012;8.610;2022-07-05T01:44:56;5.68;;;2.00;;
25319;SDS011;13256;49.012;8.610;2022-07-05T01:47:23;4.05;;;2.00;;
25319;SDS011;13256;49.012;8.610;2022-07-05T01:49:54;3.95;;;2.38;;
25319;SDS011;13256;49.012;8.610;2022-07-05T01:52:28;3.75;;;2.50;;
25319;SDS011;13256;49.012;8.610;2022-07-05T01:58:01;2.22;;;2.00;;
25319;SDS011;13256;49.012;8.610;2022-07-05T02:00:28;4.45;;;1.90;;
25319;SDS011;13256;49.012;8.610;2022-07-05T02:02:57;6.43;;;2.13;;
25319;SDS011;13256;49.012;8.610;2022-07-05T02:05:24;4.97;;;2.40;;
25319;SDS011;13256;49.012;8.610;2022-07-05T02:07:55;5.43;;;2.03;;
25319;SDS011;13256;49.012;8.610;2022-07-05T02:10:23;3.75;;;2.10;;
25319;SDS011;13256;49.012;8.610;2022-07-05T02:12:53;5.53;;;2.30;;
25319;SDS011;13256;49.012;8.610;2022-07-05T02:15:20;2.95;;;2.00;;
25319;SDS011;13256;49.012;8.610;2022-07-05T02:17:48;4.05;;;1.98;;
25319;SDS011;13256;49.012;8.610;2022-07-05T02:20:15;3.47;;;2.25;;
25319;SDS011;13256;49.012;8.610;2022-07-05T02:22:42;3.97;;;2.40;;
25319;SDS011;13256;49.012;8.610;2022-07-05T02:25:12;3.20;;;1.80;;
25319;SDS011;13256;49.012;8.610;2022-07-05T02:27:39;5.50;;;2.40;;
25319;SDS011;13256;49.012;8.610;2022-07-05T02:30:08;2.80;;;2.00;;
25319;SDS011;13256;49.012;8.610;2022-07-05T02:32:41;4.18;;;1.98;;
25319;SDS011;13256;49.012;8.610;2022-07-05T02:35:08;4.65;;;2.55;;
25319;SDS011;13256;49.012;8.610;2022-07-05T02:37:36;8.05;;;2.20;;
25319;SDS011;13256;49.012;8.610;2022-07-05T02:40:10;2.30;;;1.98;;
25319;SDS011;13256;49.012;8.610;2022-07-05T02:42:42;5.05;;;2.05;;
25319;SDS011;13256;49.012;8.610;2022-07-05T02:45:14;4.17;;;2.37;;
25319;SDS011;13256;49.012;8.610;2022-07-05T02:47:43;4.40;;;2.28;;
25319;SDS011;13256;49.012;8.610;2022-07-05T02:50:16;5.15;;;2.55;;
25319;SDS011;13256;49.012;8.610;2022-07-05T02:52:47;4.22;;;2.17;;
25319;SDS011;13256;49.012;8.610;2022-07-05T02:55:16;7.43;;;2.22;;
25319;SDS011;13256;49.012;8.610;2022-07-05T02:57:45;3.97;;;2.13;;
25319;SDS011;13256;49.012;8.610;2022-07-05T03:00:16;4.93;;;2.55;;
25319;SDS011;13256;49.012;8.610;2022-07-05T03:02:48;5.03;;;2.13;;
25319;SDS011;13256;49.012;8.610;2022-07-05T03:05:16;3.72;;;2.47;;
25319;SDS011;13256;49.012;8.610;2022-07-05T03:07:54;5.10;;;2.13;;
25319;SDS011;13256;49.012;8.610;2022-07-05T03:10:32;8.60;;;2.55;;
25319;SDS011;13256;49.012;8.610;2022-07-05T03:13:02;3.08;;;2.40;;
25319;SDS011;13256;49.012;8.610;2022-07-05T03:15:32;6.30;;;2.47;;
25319;SDS011;13256;49.012;8.610;2022-07-05T03:18:00;6.93;;;2.30;;
25319;SDS011;13256;49.012;8.610;2022-07-05T03:20:35;4.07;;;2.30;;
25319;SDS011;13256;49.012;8.610;2022-07-05T03:23:03;3.97;;;2.20;;
25319;SDS011;13256;49.012;8.610;2022-07-05T03:25:38;5.10;;;2.58;;
25319;SDS011;13256;49.012;8.610;2022-07-05T03:28:08;6.65;;;2.35;;
25319;SDS011;13256;49.012;8.610;2022-07-05T03:30:36;2.83;;;2.38;;
25319;SDS011;13256;49.012;8.610;2022-07-05T03:33:08;4.38;;;2.13;;
25319;SDS011;13256;49.012;8.610;2022-07-05T03:35:38;4.78;;;2.22;;
25319;SDS011;13256;49.012;8.610;2022-07-05T03:38:05;3.30;;;2.30;;
25319;SDS011;13256;49.012;8.610;2022-07-05T03:40:32;6.93;;;2.67;;
25319;SDS011;13256;49.012;8.610;2022-07-05T03:43:00;5.28;;;2.22;;
25319;SDS011;13256;49.012;8.610;2022-07-05T03:45:34;4.15;;;2.63;;
25319;SDS011;13256;49.012;8.610;2022-07-05T03:48:06;2.67;;;1.70;;
25319;SDS011;13256;49.012;8.610;2022-07-05T03:50:53;4.03;;;2.22;;
25319;SDS011;13256;49.012;8.610;2022-07-05T03:53:22;8.48;;;2.42;;
25319;SDS011;13256;49.012;8.610;2022-07-05T03:55:49;4.50;;;2.20;;
25319;SDS011;13256;49.012;8.610;2022-07-05T03:58:25;5.82;;;2.40;;
25319;SDS011;13256;49.012;8.610;2022-07-05T04:00:52;7.35;;;2.50;;
25319;SDS011;13256;49.012;8.610;2022-07-05T04:03:27;6.47;;;2.17;;
25319;SDS011;13256;49.012;8.610;2022-07-05T04:05:55;5.82;;;2.30;;
25319;SDS011;13256;49.012;8.610;2022-07-05T04:08:24;7.38;;;2.38;;
25319;SDS011;13256;49.012;8.610;2022-07-05T04:10:51;5.97;;;2.45;;
25319;SDS011;13256;49.012;8.610;2022-07-05T04:13:21;4.70;;;2.30;;
25319;SDS011;13256;49.012;8.610;2022-07-05T04:18:50;2.67;;;2.08;;
25319;SDS011;13256;49.012;8.610;2022-07-05T04:21:16;3.72;;;2.42;;
25319;SDS011;13256;49.012;8.610;2022-07-05T04:23:44;3.00;;;2.00;;
25319;SDS011;13256;49.012;8.610;2022-07-05T04:26:13;3.88;;;2.33;;
25319;SDS011;13256;49.012;8.610;2022-07-05T04:28:42;4.30;;;2.72;;
25319;SDS011;13256;49.012;8.610;2022-07-05T04:31:22;3.50;;;2.60;;
25319;SDS011;13256;49.012;8.610;2022-07-05T04:33:51;4.68;;;2.60;;
25319;SDS011;13256;49.012;8.610;2022-07-05T04:36:25;5.18;;;2.90;;
25319;SDS011;13256;49.012;8.610;2022-07-05T04:38:55;6.65;;;2.17;;
25319;SDS011;13256;49.012;8.610;2022-07-05T04:41:25;3.67;;;2.28;;
25319;SDS011;13256;49.012;8.610;2022-07-05T04:43:55;5.78;;;2.45;;
25319;SDS011;13256;49.012;8.610;2022-07-05T04:46:22;4.75;;;2.72;;
25319;SDS011;13256;49.012;8.610;2022-07-05T04:48:52;4.13;;;2.28;;
25319;SDS011;13256;49.012;8.610;2022-07-05T04:51:19;3.05;;;2.47;;
25319;SDS011;13256;49.012;8.610;2022-07-05T04:53:46;7.53;;;2.40;;
25319;SDS011;13256;49.012;8.610;2022-07-05T04:56:18;5.70;;;2.35;;
25319;SDS011;13256;49.012;8.610;2022-07-05T04:58:51;6.30;;;2.47;;
25319;SDS011;13256;49.012;8.610;2022-07-05T05:01:20;6.60;;;2.72;;
25319;SDS011;13256;49.012;8.610;2022-07-05T05:03:49;5.50;;;2.50;;
25319;SDS011;13256;49.012;8.610;2022-07-05T05:06:15;3.72;;;2.42;;
25319;SDS011;13256;49.012;8.610;2022-07-05T05:08:42;7.28;;;2.20;;
25319;SDS011;13256;49.012;8.610;2022-07-05T05:11:12;4.68;;;2.10;;
25319;SDS011;13256;49.012;8.610;2022-07-05T05:13:41;3.10;;;2.05;;
25319;SDS011;13256;49.012;8.610;2022-07-05T05:18:43;2.50;;;2.15;;
25319;SDS011;13256;49.012;8.610;2022-07-05T05:21:10;3.25;;;2.03;;
25319;SDS011;13256;49.012;8.610;2022-07-05T05:23:38;3.92;;;2.17;;
25319;SDS011;13256;49.012;8.610;2022-07-05T05:26:07;3.42;;;2.20;;
25319;SDS011;13256;49.012;8.610;2022-07-05T05:33:47;3.58;;;2.00;;
25319;SDS011;13256;49.012;8.610;2022-07-05T05:36:14;3.45;;;1.80;;
25319;SDS011;13256;49.012;8.610;2022-07-05T05:47:59;3.42;;;2.03;;
25319;SDS011;13256;49.012;8.610;2022-07-05T05:50:30;6.25;;;1.92;;
25319;SDS011;13256;49.012;8.610;2022-07-05T05:55:43;4.43;;;1.95;;
25319;SDS011;13256;49.012;8.610;2022-07-05T05:58:18;2.92;;;1.85;;
25319;SDS011;13256;49.012;8.610;2022-07-05T06:00:54;5.13;;;2.22;;
25319;SDS011;13256;49.012;8.610;2022-07-05T06:03:25;5.03;;;2.28;;
25319;SDS011;13256;49.012;8.610;2022-07-05T06:05:58;4.07;;;1.98;;
25319;SDS011;13256;49.012;8.610;2022-07-05T06:17:26;6.20;;;1.92;;
25319;SDS011;13256;49.012;8.610;2022-07-05T06:25:52;4.30;;;2.17;;
25319;SDS011;13256;49.012;8.610;2022-07-05T06:31:15;5.38;;;2.30;;
25319;SDS011;13256;49.012;8.610;2022-07-05T06:48:51;6.45;;;2.03;;
25319;SDS011;13256;49.012;8.610;2022-07-05T06:53:54;10.95;;;2.15;;
25319;SDS011;13256;49.012;8.610;2022-07-05T06:56:59;5.03;;;1.80;;
25319;SDS011;13256;49.012;8.610;2022-07-05T06:59:56;5.38;;;2.00;;
25319;SDS011;13256;49.012;8.610;2022-07-05T07:02:24;5.05;;;1.85;;
25319;SDS011;13256;49.012;8.610;2022-07-05T07:07:25;3.72;;;2.33;;
25319;SDS011;13256;49.012;8.610;2022-07-05T07:30:39;8.20;;;2.45;;
25319;SDS011;13256;49.012;8.610;2022-07-05T07:33:07;6.50;;;1.60;;
25319;SDS011;13256;49.012;8.610;2022-07-05T07:35:50;5.03;;;1.73;;
25319;SDS011;13256;49.012;8.610;2022-07-05T07:44:12;3.55;;;1.20;;
25319;SDS011;13256;49.012;8.610;2022-07-05T07:46:41;3.45;;;1.48;;
25319;SDS011;13256;49.012;8.610;2022-07-05T07:54:52;2.88;;;1.13;;
25319;SDS011;13256;49.012;8.610;2022-07-05T07:57:19;3.88;;;1.17;;
25319;SDS011;13256;49.012;8.610;2022-07-05T08:05:30;4.65;;;1.45;;
25319;SDS011;13256;49.012;8.610;2022-07-05T08:10:42;4.32;;;1.83;;
25319;SDS011;13256;49.012;8.610;2022-07-05T08:30:56;2.38;;;1.17;;
25319;SDS011;13256;49.012;8.610;2022-07-05T08:33:31;3.78;;;1.45;;
25319;SDS011;13256;49.012;8.610;2022-07-05T08:38:50;3.70;;;1.48;;
25319;SDS011;13256;49.012;8.610;2022-07-05T08:41:18;3.67;;;1.60;;
25319;SDS011;13256;49.012;8.610;2022-07-05T08:49:26;3.70;;;1.45;;
25319;SDS011;13256;49.012;8.610;2022-07-05T08:57:54;2.42;;;1.13;;
25319;SDS011;13256;49.012;8.610;2022-07-05T09:03:19;3.33;;;1.30;;
25319;SDS011;13256;49.012;8.610;2022-07-05T09:24:13;4.22;;;1.00;;
25319;SDS011;13256;49.012;8.610;2022-07-05T09:35:42;3.75;;;0.90;;
25319;SDS011;13256;49.012;8.610;2022-07-05T09:41:22;3.72;;;1.13;;
25319;SDS011;13256;49.012;8.610;2022-07-05T09:43:52;1.85;;;0.98;;
25319;SDS011;13256;49.012;8.610;2022-07-05T09:46:19;2.10;;;1.00;;
25319;SDS011;13256;49.012;8.610;2022-07-05T09:49:10;2.20;;;1.00;;
25319;SDS011;13256;49.012;8.610;2022-07-05T10:00:11;2.78;;;0.95;;
25319;SDS011;13256;49.012;8.610;2022-07-05T10:05:17;2.15;;;1.02;;
25319;SDS011;13256;49.012;8.610;2022-07-05T10:07:51;2.40;;;0.90;;
25319;SDS011;13256;49.012;8.610;2022-07-05T10:10:22;3.05;;;1.17;;
25319;SDS011;13256;49.012;8.610;2022-07-05T10:19:01;2.10;;;1.17;;
25319;SDS011;13256;49.012;8.610;2022-07-05T10:21:30;2.03;;;0.70;;
25319;SDS011;13256;49.012;8.610;2022-07-05T10:29:45;2.40;;;0.80;;
25319;SDS011;13256;49.012;8.610;2022-07-05T10:32:18;2.17;;;1.00;;
25319;SDS011;13256;49.012;8.610;2022-07-05T10:40:39;2.90;;;0.88;;
25319;SDS011;13256;49.012;8.610;2022-07-05T10:43:12;3.30;;;0.90;;
25319;SDS011;13256;49.012;8.610;2022-07-05T10:45:48;2.88;;;0.93;;
25319;SDS011;13256;49.012;8.610;2022-07-05T10:48:19;1.33;;;0.70;;
25319;SDS011;13256;49.012;8.610;2022-07-05T11:02:55;4.55;;;0.90;;
25319;SDS011;13256;49.012;8.610;2022-07-05T11:06:02;2.28;;;0.93;;
25319;SDS011;13256;49.012;8.610;2022-07-05T11:08:31;3.28;;;0.90;;
25319;SDS011;13256;49.012;8.610;2022-07-05T11:11:24;2.45;;;0.82;;
25319;SDS011;13256;49.012;8.610;2022-07-05T11:26:03;3.83;;;0.90;;
25319;SDS011;13256;49.012;8.610;2022-07-05T11:44:31;5.03;;;1.00;;
25319;SDS011;13256;49.012;8.610;2022-07-05T11:53:28;3.40;;;1.00;;
25319;SDS011;13256;49.012;8.610;2022-07-05T11:56:26;3.28;;;0.88;;
25319;SDS011;13256;49.012;8.610;2022-07-05T12:29:00;3.72;;;0.93;;
25319;SDS011;13256;49.012;8.610;2022-07-05T12:37:19;8.02;;;1.00;;
25319;SDS011;13256;49.012;8.610;2022-07-05T12:40:03;3.30;;;0.95;;
25319;SDS011;13256;49.012;8.610;2022-07-05T12:51:46;3.90;;;1.00;;
25319;SDS011;13256;49.012;8.610;2022-07-05T13:00:06;2.25;;;0.70;;
25319;SDS011;13256;49.012;8.610;2022-07-05T13:05:02;1.77;;;1.10;;
25319;SDS011;13256;49.012;8.610;2022-07-05T13:07:31;2.17;;;1.00;;
25319;SDS011;13256;49.012;8.610;2022-07-05T13:10:45;4.47;;;1.00;;
25319;SDS011;13256;49.012;8.610;2022-07-05T13:13:09;1.95;;;0.93;;
25319;SDS011;13256;49.012;8.610;2022-07-05T13:15:36;4.07;;;1.10;;
25319;SDS011;13256;49.012;8.610;2022-07-05T13:18:09;1.80;;;1.00;;
25319;SDS011;13256;49.012;8.610;2022-07-05T13:20:44;3.58;;;0.98;;
25319;SDS011;13256;49.012;8.610;2022-07-05T13:23:16;3.88;;;0.93;;
25319;SDS011;13256;49.012;8.610;2022-07-05T13:31:22;2.47;;;1.00;;
25319;SDS011;13256;49.012;8.610;2022-07-05T13:36:58;1.08;;;0.80;;
25319;SDS011;13256;49.012;8.610;2022-07-05T13:39:33;2.10;;;0.70;;
25319;SDS011;13256;49.012;8.610;2022-07-05T13:42:03;5.65;;;0.98;;
25319;SDS011;13256;49.012;8.610;2022-07-05T13:44:33;2.67;;;0.77;;
25319;SDS011;13256;49.012;8.610;2022-07-05T13:47:02;3.33;;;0.80;;
25319;SDS011;13256;49.012;8.610;2022-07-05T13:49:31;2.50;;;1.00;;
25319;SDS011;13256;49.012;8.610;2022-07-05T13:51:58;2.33;;;0.82;;
25319;SDS011;13256;49.012;8.610;2022-07-05T13:54:31;4.30;;;0.93;;
25319;SDS011;13256;49.012;8.610;2022-07-05T13:56:57;4.80;;;0.80;;
25319;SDS011;13256;49.012;8.610;2022-07-05T13:59:24;1.73;;;0.70;;
25319;SDS011;13256;49.012;8.610;2022-07-05T14:01:51;2.47;;;0.88;;
25319;SDS011;13256;49.012;8.610;2022-07-05T14:04:18;5.15;;;0.90;;
25319;SDS011;13256;49.012;8.610;2022-07-05T14:06:47;2.65;;;0.85;;
25319;SDS011;13256;49.012;8.610;2022-07-05T14:09:16;1.27;;;0.80;;
25319;SDS011;13256;49.012;8.610;2022-07-05T14:11:43;1.65;;;1.02;;
25319;SDS011;13256;49.012;8.610;2022-07-05T14:14:38;2.85;;;0.90;;
25319;SDS011;13256;49.012;8.610;2022-07-05T14:17:06;1.58;;;0.85;;
25319;SDS011;13256;49.012;8.610;2022-07-05T14:19:35;2.28;;;0.80;;
25319;SDS011;13256;49.012;8.610;2022-07-05T14:22:08;6.32;;;0.93;;
25319;SDS011;13256;49.012;8.610;2022-07-05T14:24:37;1.10;;;0.68;;
25319;SDS011;13256;49.012;8.610;2022-07-05T14:27:05;3.65;;;1.00;;
25319;SDS011;13256;49.012;8.610;2022-07-05T14:29:40;0.98;;;0.70;;
25319;SDS011;13256;49.012;8.610;2022-07-05T14:32:07;4.57;;;0.90;;
25319;SDS011;13256;49.012;8.610;2022-07-05T14:34:59;3.03;;;0.75;;
25319;SDS011;13256;49.012;8.610;2022-07-05T14:37:30;2.25;;;0.70;;
25319;SDS011;13256;49.012;8.610;2022-07-05T14:40:01;1.55;;;0.70;;
25319;SDS011;13256;49.012;8.610;2022-07-05T14:42:30;0.60;;;0.60;;
25319;SDS011;13256;49.012;8.610;2022-07-05T14:44:57;2.90;;;0.95;;
25319;SDS011;13256;49.012;8.610;2022-07-05T14:47:25;1.55;;;0.70;;
25319;SDS011;13256;49.012;8.610;2022-07-05T14:49:55;5.25;;;0.98;;
25319;SDS011;13256;49.012;8.610;2022-07-05T14:52:25;1.60;;;1.05;;
25319;SDS011;13256;49.012;8.610;2022-07-05T14:54:54;3.65;;;0.95;;
25319;SDS011;13256;49.012;8.610;2022-07-05T14:57:23;1.33;;;0.70;;
25319;SDS011;13256;49.012;8.610;2022-07-05T14:59:55;1.98;;;0.80;;
25319;SDS011;13256;49.012;8.610;2022-07-05T15:02:26;3.35;;;0.90;;
25319;SDS011;13256;49.012;8.610;2022-07-05T15:04:53;3.10;;;0.82;;
25319;SDS011;13256;49.012;8.610;2022-07-05T15:07:22;3.00;;;0.85;;
25319;SDS011;13256;49.012;8.610;2022-07-05T15:09:49;3.00;;;0.80;;
25319;SDS011;13256;49.012;8.610;2022-07-05T15:12:18;1.85;;;0.93;;
25319;SDS011;13256;49.012;8.610;2022-07-05T15:14:45;0.82;;;0.70;;
25319;SDS011;13256;49.012;8.610;2022-07-05T15:17:21;7.10;;;0.85;;
25319;SDS011;13256;49.012;8.610;2022-07-05T15:19:51;2.10;;;0.80;;
25319;SDS011;13256;49.012;8.610;2022-07-05T15:22:18;1.80;;;0.90;;
25319;SDS011;13256;49.012;8.610;2022-07-05T15:24:50;4.50;;;1.10;;
25319;SDS011;13256;49.012;8.610;2022-07-05T15:27:17;2.63;;;0.88;;
25319;SDS011;13256;49.012;8.610;2022-07-05T15:29:47;3.35;;;0.98;;
25319;SDS011;13256;49.012;8.610;2022-07-05T15:32:14;0.88;;;0.80;;
25319;SDS011;13256;49.012;8.610;2022-07-05T15:34:44;5.28;;;0.70;;
25319;SDS011;13256;49.012;8.610;2022-07-05T15:37:13;2.20;;;0.80;;
25319;SDS011;13256;49.012;8.610;2022-07-05T15:39:42;3.05;;;0.77;;
25319;SDS011;13256;49.012;8.610;2022-07-05T15:42:11;1.85;;;0.73;;
25319;SDS011;13256;49.012;8.610;2022-07-05T15:44:41;1.23;;;0.70;;
25319;SDS011;13256;49.012;8.610;2022-07-05T15:47:18;2.95;;;0.85;;
25319;SDS011;13256;49.012;8.610;2022-07-05T15:49:53;3.72;;;0.80;;
25319;SDS011;13256;49.012;8.610;2022-07-05T15:52:20;1.48;;;0.90;;
25319;SDS011;13256;49.012;8.610;2022-07-05T15:54:49;2.72;;;0.73;;
25319;SDS011;13256;49.012;8.610;2022-07-05T15:57:18;2.25;;;1.00;;
25319;SDS011;13256;49.012;8.610;2022-07-05T15:59:47;2.42;;;0.95;;
25319;SDS011;13256;49.012;8.610;2022-07-05T16:02:19;3.75;;;0.85;;
25319;SDS011;13256;49.012;8.610;2022-07-05T16:04:52;3.40;;;1.00;;
25319;SDS011;13256;49.012;8.610;2022-07-05T16:07:20;2.03;;;0.85;;
25319;SDS011;13256;49.012;8.610;2022-07-05T16:09:47;1.33;;;0.68;;
25319;SDS011;13256;49.012;8.610;2022-07-05T16:12:41;1.85;;;1.00;;
25319;SDS011;13256;49.012;8.610;2022-07-05T16:15:10;1.98;;;0.90;;
25319;SDS011;13256;49.012;8.610;2022-07-05T16:18:00;2.90;;;1.08;;
25319;SDS011;13256;49.012;8.610;2022-07-05T16:20:27;2.28;;;0.98;;
25319;SDS011;13256;49.012;8.610;2022-07-05T16:22:57;3.17;;;1.13;;
25319;SDS011;13256;49.012;8.610;2022-07-05T16:25:26;2.72;;;1.08;;
25319;SDS011;13256;49.012;8.610;2022-07-05T16:27:53;2.72;;;0.80;;
25319;SDS011;13256;49.012;8.610;2022-07-05T16:30:21;5.32;;;0.95;;
25319;SDS011;13256;49.012;8.610;2022-07-05T16:32:49;2.63;;;0.63;;
25319;SDS011;13256;49.012;8.610;2022-07-05T16:35:26;2.25;;;0.90;;
25319;SDS011;13256;49.012;8.610;2022-07-05T16:37:55;2.60;;;0.70;;
25319;SDS011;13256;49.012;8.610;2022-07-05T16:40:22;2.20;;;0.75;;
25319;SDS011;13256;49.012;8.610;2022-07-05T16:42:55;1.50;;;0.80;;
25319;SDS011;13256;49.012;8.610;2022-07-05T16:45:57;1.92;;;0.95;;
25319;SDS011;13256;49.012;8.610;2022-07-05T16:48:26;4.15;;;0.90;;
25319;SDS011;13256;49.012;8.610;2022-07-05T16:50:54;1.48;;;0.88;;
25319;SDS011;13256;49.012;8.610;2022-07-05T16:53:38;4.72;;;1.00;;
25319;SDS011;13256;49.012;8.610;2022-07-05T16:56:06;2.63;;;1.00;;
25319;SDS011;13256;49.012;8.610;2022-07-05T16:58:46;4.13;;;0.85;;
25319;SDS011;13256;49.012;8.610;2022-07-05T17:04:06;2.22;;;0.90;;
25319;SDS011;13256;49.012;8.610;2022-07-05T17:06:35;3.15;;;1.00;;
25319;SDS011;13256;49.012;8.610;2022-07-05T17:09:02;3.13;;;0.93;;
25319;SDS011;13256;49.012;8.610;2022-07-05T17:11:29;2.83;;;0.70;;
25319;SDS011;13256;49.012;8.610;2022-07-05T17:13:56;2.08;;;1.02;;
25319;SDS011;13256;49.012;8.610;2022-07-05T17:16:25;1.95;;;1.27;;
25319;SDS011;13256;49.012;8.610;2022-07-05T17:18:57;2.38;;;0.95;;
25319;SDS011;13256;49.012;8.610;2022-07-05T17:21:24;3.67;;;1.20;;
25319;SDS011;13256;49.012;8.610;2022-07-05T17:23:55;2.45;;;1.30;;
25319;SDS011;13256;49.012;8.610;2022-07-05T17:26:25;2.17;;;1.10;;
25319;SDS011;13256;49.012;8.610;2022-07-05T17:29:02;6.10;;;1.40;;
25319;SDS011;13256;49.012;8.610;2022-07-05T17:40:34;3.90;;;1.00;;
25319;SDS011;13256;49.012;8.610;2022-07-05T17:45:31;2.20;;;0.98;;
25319;SDS011;13256;49.012;8.610;2022-07-05T17:47:57;3.08;;;1.02;;
25319;SDS011;13256;49.012;8.610;2022-07-05T17:50:26;1.02;;;0.88;;
25319;SDS011;13256;49.012;8.610;2022-07-05T17:53:09;1.52;;;1.00;;
25319;SDS011;13256;49.012;8.610;2022-07-05T17:55:41;3.50;;;1.30;;
25319;SDS011;13256;49.012;8.610;2022-07-05T17:58:12;3.60;;;1.00;;
25319;SDS011;13256;49.012;8.610;2022-07-05T18:00:42;2.10;;;1.08;;
25319;SDS011;13256;49.012;8.610;2022-07-05T18:03:08;1.73;;;1.02;;
25319;SDS011;13256;49.012;8.610;2022-07-05T18:05:35;1.48;;;0.95;;
25319;SDS011;13256;49.012;8.610;2022-07-05T18:08:33;1.55;;;0.82;;
25319;SDS011;13256;49.012;8.610;2022-07-05T18:11:03;4.47;;;1.20;;
25319;SDS011;13256;49.012;8.610;2022-07-05T18:13:29;2.20;;;1.08;;
25319;SDS011;13256;49.012;8.610;2022-07-05T18:15:58;4.50;;;1.10;;
25319;SDS011;13256;49.012;8.610;2022-07-05T18:18:29;3.67;;;1.25;;
25319;SDS011;13256;49.012;8.610;2022-07-05T18:20:57;1.95;;;1.00;;
25319;SDS011;13256;49.012;8.610;2022-07-05T18:23:26;5.03;;;1.50;;
25319;SDS011;13256;49.012;8.610;2022-07-05T18:25:53;2.92;;;1.08;;
25319;SDS011;13256;49.012;8.610;2022-07-05T18:28:22;3.65;;;1.00;;
25319;SDS011;13256;49.012;8.610;2022-07-05T18:30:48;4.50;;;1.33;;
25319;SDS011;13256;49.012;8.610;2022-07-05T18:33:16;3.22;;;1.10;;
25319;SDS011;13256;49.012;8.610;2022-07-05T18:35:42;2.47;;;1.27;;
25319;SDS011;13256;49.012;8.610;2022-07-05T18:38:11;2.70;;;1.30;;
25319;SDS011;13256;49.012;8.610;2022-07-05T18:40:38;4.47;;;1.17;;
25319;SDS011;13256;49.012;8.610;2022-07-05T18:43:05;1.83;;;1.30;;
25319;SDS011;13256;49.012;8.610;2022-07-05T18:45:31;2.35;;;1.20;;
25319;SDS011;13256;49.012;8.610;2022-07-05T18:47:58;3.38;;;1.10;;
25319;SDS011;13256;49.012;8.610;2022-07-05T18:50:28;2.00;;;1.00;;
25319;SDS011;13256;49.012;8.610;2022-07-05T18:52:57;8.90;;;1.35;;
25319;SDS011;13256;49.012;8.610;2022-07-05T18:55:23;3.03;;;1.20;;
25319;SDS011;13256;49.012;8.610;2022-07-05T18:57:51;3.92;;;1.10;;
25319;SDS011;13256;49.012;8.610;2022-07-05T19:00:19;3.75;;;1.15;;
25319;SDS011;13256;49.012;8.610;2022-07-05T19:08:21;4.03;;;1.15;;
25319;SDS011;13256;49.012;8.610;2022-07-05T19:11:12;2.97;;;1.20;;
25319;SDS011;13256;49.012;8.610;2022-07-05T19:13:57;3.45;;;1.08;;
25319;SDS011;13256;49.012;8.610;2022-07-05T19:16:24;2.13;;;1.20;;
25319;SDS011;13256;49.012;8.610;2022-07-05T19:21:40;1.48;;;0.95;;
25319;SDS011;13256;49.012;8.610;2022-07-05T19:26:41;5.32;;;1.50;;
25319;SDS011;13256;49.012;8.610;2022-07-05T19:29:10;2.88;;;1.38;;
25319;SDS011;13256;49.012;8.610;2022-07-05T19:31:41;2.67;;;1.30;;
25319;SDS011;13256;49.012;8.610;2022-07-05T19:34:08;3.38;;;1.20;;
25319;SDS011;13256;49.012;8.610;2022-07-05T19:36:35;6.05;;;1.15;;
25319;SDS011;13256;49.012;8.610;2022-07-05T19:51:07;6.00;;;1.20;;
25319;SDS011;13256;49.012;8.610;2022-07-05T19:59:03;5.03;;;1.45;;
25319;SDS011;13256;49.012;8.610;2022-07-05T20:04:51;6.65;;;1.23;;
25319;SDS011;13256;49.012;8.610;2022-07-05T20:07:17;6.03;;;1.50;;
25319;SDS011;13256;49.012;8.610;2022-07-05T20:27:22;3.97;;;1.27;;
25319;SDS011;13256;49.012;8.610;2022-07-05T20:29:49;3.67;;;1.02;;
25319;SDS011;13256;49.012;8.610;2022-07-05T20:32:20;2.30;;;1.20;;
25319;SDS011;13256;49.012;8.610;2022-07-05T20:34:47;3.40;;;1.30;;
25319;SDS011;13256;49.012;8.610;2022-07-05T20:37:20;4.72;;;1.35;;
25319;SDS011;13256;49.012;8.610;2022-07-05T20:39:50;4.35;;;1.55;;
25319;SDS011;13256;49.012;8.610;2022-07-05T20:42:17;2.25;;;1.10;;
25319;SDS011;13256;49.012;8.610;2022-07-05T20:44:46;3.65;;;1.38;;
25319;SDS011;13256;49.012;8.610;2022-07-05T20:47:15;3.75;;;1.40;;
25319;SDS011;13256;49.012;8.610;2022-07-05T20:49:41;3.40;;;1.00;;
25319;SDS011;13256;49.012;8.610;2022-07-05T20:52:13;4.65;;;1.60;;
25319;SDS011;13256;49.012;8.610;2022-07-05T20:54:42;4.00;;;1.33;;
25319;SDS011;13256;49.012;8.610;2022-07-05T20:57:09;3.28;;;1.20;;
25319;SDS011;13256;49.012;8.610;2022-07-05T21:00:01;3.95;;;1.58;;
25319;SDS011;13256;49.012;8.610;2022-07-05T21:02:30;3.42;;;1.40;;
25319;SDS011;13256;49.012;8.610;2022-07-05T21:04:56;3.50;;;1.90;;
25319;SDS011;13256;49.012;8.610;2022-07-05T21:07:28;3.10;;;1.63;;
25319;SDS011;13256;49.012;8.610;2022-07-05T21:10:02;4.30;;;1.70;;
25319;SDS011;13256;49.012;8.610;2022-07-05T21:12:32;4.88;;;1.83;;
25319;SDS011;13256;49.012;8.610;2022-07-05T21:15:02;2.70;;;1.70;;
25319;SDS011;13256;49.012;8.610;2022-07-05T21:17:29;5.10;;;2.00;;
25319;SDS011;13256;49.012;8.610;2022-07-05T21:20:00;4.72;;;1.88;;
25319;SDS011;13256;49.012;8.610;2022-07-05T21:22:27;7.28;;;2.03;;
25319;SDS011;13256;49.012;8.610;2022-07-05T21:24:53;6.93;;;1.80;;